sensor_id;sensor_type;location;lat;lon;timestamp;P1;durP1;ratioP1;P2;durP2;ratioP2
40339;SDS011;26044;50.864;20.658;2023-05-16T00:00:16;17.60;;;5.57;;
40339;SDS011;26044;50.864;20.658;2023-05-16T00:02:44;13.20;;;5.70;;
40339;SDS011;26044;50.864;20.658;2023-05-16T00:05:11;14.80;;;6.22;;
40339;SDS011;26044;50.864;20.658;2023-05-16T00:07:41;13.27;;;5.50;;
40339;SDS011;26044;50.864;20.658;2023-05-16T00:10:09;14.93;;;5.63;;
40339;SDS011;26044;50.864;20.658;2023-05-16T00:12:37;16.85;;;6.15;;
40339;SDS011;26044;50.864;20.658;2023-05-16T00:15:07;15.05;;;6.05;;
40339;SDS011;26044;50.864;20.658;2023-05-16T00:17:37;16.98;;;6.97;;
40339;SDS011;26044;50.864;20.658;2023-05-16T00:20:06;16.08;;;7.32;;
40339;SDS011;26044;50.864;20.658;2023-05-16T00:22:33;17.83;;;7.88;;
40339;SDS011;26044;50.864;20.658;2023-05-16T00:25:01;22.25;;;8.57;;
40339;SDS011;26044;50.864;20.658;2023-05-16T00:27:27;20.95;;;8.85;;
40339;SDS011;26044;50.864;20.658;2023-05-16T00:29:54;18.92;;;8.63;;
40339;SDS011;26044;50.864;20.658;2023-05-16T00:32:21;20.33;;;8.95;;
40339;SDS011;26044;50.864;20.658;2023-05-16T00:34:49;21.50;;;8.73;;
40339;SDS011;26044;50.864;20.658;2023-05-16T00:37:16;23.00;;;10.07;;
40339;SDS011;26044;50.864;20.658;2023-05-16T00:39:42;18.52;;;8.77;;
40339;SDS011;26044;50.864;20.658;2023-05-16T00:42:09;22.13;;;9.50;;
40339;SDS011;26044;50.864;20.658;2023-05-16T00:44:36;24.40;;;10.35;;
40339;SDS011;26044;50.864;20.658;2023-05-16T00:47:03;19.73;;;9.65;;
40339;SDS011;26044;50.864;20.658;2023-05-16T00:49:29;19.95;;;9.80;;
40339;SDS011;26044;50.864;20.658;2023-05-16T00:51:57;23.05;;;10.70;;
40339;SDS011;26044;50.864;20.658;2023-05-16T00:54:24;23.77;;;9.55;;
40339;SDS011;26044;50.864;20.658;2023-05-16T00:56:54;22.38;;;10.45;;
40339;SDS011;26044;50.864;20.658;2023-05-16T00:59:24;25.67;;;10.77;;
40339;SDS011;26044;50.864;20.658;2023-05-16T01:04:19;24.60;;;9.70;;
40339;SDS011;26044;50.864;20.658;2023-05-16T01:06:46;24.05;;;10.45;;
40339;SDS011;26044;50.864;20.658;2023-05-16T01:09:13;22.90;;;10.85;;
40339;SDS011;26044;50.864;20.658;2023-05-16T01:11:42;23.90;;;11.27;;
40339;SDS011;26044;50.864;20.658;2023-05-16T01:14:45;27.13;;;10.88;;
40339;SDS011;26044;50.864;20.658;2023-05-16T01:20:36;21.00;;;10.30;;
40339;SDS011;26044;50.864;20.658;2023-05-16T01:26:18;29.15;;;11.30;;
40339;SDS011;26044;50.864;20.658;2023-05-16T01:28:45;24.38;;;11.85;;
40339;SDS011;26044;50.864;20.658;2023-05-16T01:31:13;25.63;;;10.57;;
40339;SDS011;26044;50.864;20.658;2023-05-16T01:33:40;28.15;;;11.55;;
40339;SDS011;26044;50.864;20.658;2023-05-16T01:36:12;25.27;;;12.18;;
40339;SDS011;26044;50.864;20.658;2023-05-16T01:38:45;25.20;;;11.43;;
40339;SDS011;26044;50.864;20.658;2023-05-16T01:41:38;23.93;;;11.53;;
40339;SDS011;26044;50.864;20.658;2023-05-16T01:44:28;23.15;;;11.63;;
40339;SDS011;26044;50.864;20.658;2023-05-16T01:46:57;26.40;;;12.00;;
40339;SDS011;26044;50.864;20.658;2023-05-16T01:51:55;26.70;;;12.10;;
40339;SDS011;26044;50.864;20.658;2023-05-16T01:54:29;23.80;;;11.63;;
40339;SDS011;26044;50.864;20.658;2023-05-16T01:59:25;22.65;;;11.32;;
40339;SDS011;26044;50.864;20.658;2023-05-16T02:01:53;24.35;;;11.70;;
40339;SDS011;26044;50.864;20.658;2023-05-16T02:04:22;23.52;;;12.32;;
40339;SDS011;26044;50.864;20.658;2023-05-16T02:06:50;25.10;;;12.73;;
40339;SDS011;26044;50.864;20.658;2023-05-16T02:09:17;28.40;;;11.93;;
40339;SDS011;26044;50.864;20.658;2023-05-16T02:11:44;25.88;;;12.43;;
40339;SDS011;26044;50.864;20.658;2023-05-16T02:14:12;24.17;;;11.82;;
40339;SDS011;26044;50.864;20.658;2023-05-16T02:16:39;23.85;;;11.73;;
40339;SDS011;26044;50.864;20.658;2023-05-16T02:19:06;25.13;;;13.02;;
40339;SDS011;26044;50.864;20.658;2023-05-16T02:21:32;25.55;;;12.82;;
40339;SDS011;26044;50.864;20.658;2023-05-16T02:23:59;27.70;;;12.80;;
40339;SDS011;26044;50.864;20.658;2023-05-16T02:26:26;23.60;;;11.75;;
40339;SDS011;26044;50.864;20.658;2023-05-16T02:28:53;22.58;;;10.73;;
40339;SDS011;26044;50.864;20.658;2023-05-16T02:31:29;22.05;;;9.88;;
40339;SDS011;26044;50.864;20.658;2023-05-16T02:33:58;20.90;;;9.60;;
40339;SDS011;26044;50.864;20.658;2023-05-16T02:36:26;18.73;;;9.85;;
40339;SDS011;26044;50.864;20.658;2023-05-16T02:38:53;20.48;;;9.13;;
40339;SDS011;26044;50.864;20.658;2023-05-16T02:41:20;21.63;;;9.35;;
40339;SDS011;26044;50.864;20.658;2023-05-16T02:43:47;27.02;;;10.48;;
40339;SDS011;26044;50.864;20.658;2023-05-16T02:46:25;21.80;;;9.82;;
40339;SDS011;26044;50.864;20.658;2023-05-16T02:48:53;21.42;;;10.00;;
40339;SDS011;26044;50.864;20.658;2023-05-16T02:51:21;22.50;;;9.65;;
40339;SDS011;26044;50.864;20.658;2023-05-16T02:53:49;21.33;;;9.25;;
40339;SDS011;26044;50.864;20.658;2023-05-16T02:56:17;21.83;;;10.98;;
40339;SDS011;26044;50.864;20.658;2023-05-16T02:58:46;23.05;;;10.60;;
40339;SDS011;26044;50.864;20.658;2023-05-16T03:01:13;22.83;;;9.85;;
40339;SDS011;26044;50.864;20.658;2023-05-16T03:03:41;20.42;;;10.20;;
40339;SDS011;26044;50.864;20.658;2023-05-16T03:06:08;20.67;;;9.82;;
40339;SDS011;26044;50.864;20.658;2023-05-16T03:08:34;20.98;;;10.02;;
40339;SDS011;26044;50.864;20.658;2023-05-16T03:11:01;22.70;;;9.88;;
40339;SDS011;26044;50.864;20.658;2023-05-16T03:13:28;22.70;;;10.82;;
40339;SDS011;26044;50.864;20.658;2023-05-16T03:15:55;23.25;;;10.13;;
40339;SDS011;26044;50.864;20.658;2023-05-16T03:18:22;22.40;;;10.25;;
40339;SDS011;26044;50.864;20.658;2023-05-16T03:20:49;21.20;;;9.98;;
40339;SDS011;26044;50.864;20.658;2023-05-16T03:23:18;20.33;;;9.38;;
40339;SDS011;26044;50.864;20.658;2023-05-16T03:25:46;22.35;;;9.90;;
40339;SDS011;26044;50.864;20.658;2023-05-16T03:28:15;23.00;;;10.13;;
40339;SDS011;26044;50.864;20.658;2023-05-16T03:30:43;22.27;;;10.07;;
40339;SDS011;26044;50.864;20.658;2023-05-16T03:33:10;25.50;;;11.00;;
40339;SDS011;26044;50.864;20.658;2023-05-16T03:35:37;31.55;;;10.65;;
40339;SDS011;26044;50.864;20.658;2023-05-16T03:38:04;31.95;;;12.15;;
40339;SDS011;26044;50.864;20.658;2023-05-16T03:40:31;63.05;;;12.27;;
40339;SDS011;26044;50.864;20.658;2023-05-16T03:42:58;30.52;;;10.82;;
40339;SDS011;26044;50.864;20.658;2023-05-16T03:45:25;29.25;;;12.10;;
40339;SDS011;26044;50.864;20.658;2023-05-16T03:47:52;25.83;;;12.02;;
40339;SDS011;26044;50.864;20.658;2023-05-16T03:50:19;33.50;;;11.40;;
40339;SDS011;26044;50.864;20.658;2023-05-16T03:52:46;23.52;;;10.88;;
40339;SDS011;26044;50.864;20.658;2023-05-16T03:55:13;24.45;;;10.73;;
40339;SDS011;26044;50.864;20.658;2023-05-16T03:57:40;26.02;;;11.27;;
40339;SDS011;26044;50.864;20.658;2023-05-16T04:00:09;24.30;;;10.73;;
40339;SDS011;26044;50.864;20.658;2023-05-16T04:02:38;23.77;;;12.23;;
40339;SDS011;26044;50.864;20.658;2023-05-16T04:05:10;25.23;;;11.40;;
40339;SDS011;26044;50.864;20.658;2023-05-16T04:07:37;23.38;;;11.85;;
40339;SDS011;26044;50.864;20.658;2023-05-16T04:10:05;24.60;;;12.20;;
40339;SDS011;26044;50.864;20.658;2023-05-16T04:12:32;24.95;;;13.23;;
40339;SDS011;26044;50.864;20.658;2023-05-16T04:14:59;24.88;;;12.82;;
40339;SDS011;26044;50.864;20.658;2023-05-16T04:17:26;27.88;;;12.82;;
40339;SDS011;26044;50.864;20.658;2023-05-16T04:19:52;27.45;;;13.50;;
40339;SDS011;26044;50.864;20.658;2023-05-16T04:22:20;27.65;;;14.35;;
40339;SDS011;26044;50.864;20.658;2023-05-16T04:24:48;26.05;;;13.68;;
40339;SDS011;26044;50.864;20.658;2023-05-16T04:27:15;26.88;;;13.15;;
40339;SDS011;26044;50.864;20.658;2023-05-16T04:29:42;26.05;;;14.00;;
40339;SDS011;26044;50.864;20.658;2023-05-16T04:32:09;27.08;;;14.02;;
40339;SDS011;26044;50.864;20.658;2023-05-16T04:34:37;31.52;;;15.82;;
40339;SDS011;26044;50.864;20.658;2023-05-16T04:37:06;28.55;;;15.75;;
40339;SDS011;26044;50.864;20.658;2023-05-16T04:39:34;33.78;;;15.95;;
40339;SDS011;26044;50.864;20.658;2023-05-16T04:42:02;30.85;;;16.60;;
40339;SDS011;26044;50.864;20.658;2023-05-16T04:44:29;31.60;;;16.17;;
40339;SDS011;26044;50.864;20.658;2023-05-16T04:46:57;31.80;;;16.10;;
40339;SDS011;26044;50.864;20.658;2023-05-16T04:49:24;32.15;;;17.35;;
40339;SDS011;26044;50.864;20.658;2023-05-16T04:51:51;32.10;;;15.93;;
40339;SDS011;26044;50.864;20.658;2023-05-16T04:54:18;32.80;;;17.15;;
40339;SDS011;26044;50.864;20.658;2023-05-16T04:56:45;37.13;;;16.13;;
40339;SDS011;26044;50.864;20.658;2023-05-16T04:59:11;31.95;;;15.50;;
40339;SDS011;26044;50.864;20.658;2023-05-16T05:01:38;31.15;;;15.27;;
40339;SDS011;26044;50.864;20.658;2023-05-16T05:04:05;33.15;;;17.13;;
40339;SDS011;26044;50.864;20.658;2023-05-16T05:06:32;32.25;;;17.40;;
40339;SDS011;26044;50.864;20.658;2023-05-16T05:08:59;32.38;;;17.52;;
40339;SDS011;26044;50.864;20.658;2023-05-16T05:11:26;35.63;;;18.52;;
40339;SDS011;26044;50.864;20.658;2023-05-16T05:13:53;35.22;;;19.58;;
40339;SDS011;26044;50.864;20.658;2023-05-16T05:16:20;38.97;;;19.13;;
40339;SDS011;26044;50.864;20.658;2023-05-16T05:18:47;38.85;;;18.88;;
40339;SDS011;26044;50.864;20.658;2023-05-16T05:21:14;36.10;;;19.55;;
40339;SDS011;26044;50.864;20.658;2023-05-16T05:23:41;32.22;;;16.30;;
40339;SDS011;26044;50.864;20.658;2023-05-16T05:26:08;33.80;;;17.35;;
40339;SDS011;26044;50.864;20.658;2023-05-16T05:28:35;35.80;;;18.70;;
40339;SDS011;26044;50.864;20.658;2023-05-16T05:31:03;33.83;;;17.88;;
40339;SDS011;26044;50.864;20.658;2023-05-16T05:33:30;31.15;;;16.65;;
40339;SDS011;26044;50.864;20.658;2023-05-16T05:35:57;30.83;;;16.85;;
40339;SDS011;26044;50.864;20.658;2023-05-16T05:38:25;34.65;;;17.88;;
40339;SDS011;26044;50.864;20.658;2023-05-16T05:40:52;31.55;;;16.88;;
40339;SDS011;26044;50.864;20.658;2023-05-16T05:43:19;32.20;;;17.00;;
40339;SDS011;26044;50.864;20.658;2023-05-16T05:45:48;32.83;;;17.60;;
40339;SDS011;26044;50.864;20.658;2023-05-16T05:48:18;35.92;;;18.35;;
40339;SDS011;26044;50.864;20.658;2023-05-16T05:50:44;30.30;;;16.83;;
40339;SDS011;26044;50.864;20.658;2023-05-16T05:53:11;31.30;;;16.42;;
40339;SDS011;26044;50.864;20.658;2023-05-16T05:55:38;29.08;;;15.15;;
40339;SDS011;26044;50.864;20.658;2023-05-16T05:58:07;31.35;;;17.00;;
40339;SDS011;26044;50.864;20.658;2023-05-16T06:00:34;30.65;;;16.75;;
40339;SDS011;26044;50.864;20.658;2023-05-16T06:03:01;30.40;;;15.55;;
40339;SDS011;26044;50.864;20.658;2023-05-16T06:05:28;34.33;;;16.35;;
40339;SDS011;26044;50.864;20.658;2023-05-16T06:07:55;34.92;;;15.48;;
40339;SDS011;26044;50.864;20.658;2023-05-16T06:10:25;30.70;;;14.27;;
40339;SDS011;26044;50.864;20.658;2023-05-16T06:12:52;34.17;;;15.35;;
40339;SDS011;26044;50.864;20.658;2023-05-16T06:15:19;29.25;;;14.57;;
40339;SDS011;26044;50.864;20.658;2023-05-16T06:17:46;40.60;;;17.92;;
40339;SDS011;26044;50.864;20.658;2023-05-16T06:20:13;31.52;;;15.52;;
40339;SDS011;26044;50.864;20.658;2023-05-16T06:22:40;31.73;;;15.18;;
40339;SDS011;26044;50.864;20.658;2023-05-16T06:25:07;31.35;;;15.75;;
40339;SDS011;26044;50.864;20.658;2023-05-16T06:27:34;37.30;;;13.82;;
40339;SDS011;26044;50.864;20.658;2023-05-16T06:30:01;38.38;;;17.27;;
40339;SDS011;26044;50.864;20.658;2023-05-16T06:32:27;35.10;;;14.70;;
40339;SDS011;26044;50.864;20.658;2023-05-16T06:34:54;25.92;;;13.35;;
40339;SDS011;26044;50.864;20.658;2023-05-16T06:37:21;26.83;;;12.95;;
40339;SDS011;26044;50.864;20.658;2023-05-16T06:39:48;28.08;;;14.50;;
40339;SDS011;26044;50.864;20.658;2023-05-16T06:42:15;28.95;;;13.75;;
40339;SDS011;26044;50.864;20.658;2023-05-16T06:44:43;30.00;;;14.02;;
40339;SDS011;26044;50.864;20.658;2023-05-16T06:47:09;23.70;;;12.30;;
40339;SDS011;26044;50.864;20.658;2023-05-16T06:49:37;24.98;;;12.18;;
40339;SDS011;26044;50.864;20.658;2023-05-16T06:52:04;25.00;;;12.98;;
40339;SDS011;26044;50.864;20.658;2023-05-16T06:54:31;23.13;;;11.73;;
40339;SDS011;26044;50.864;20.658;2023-05-16T06:56:58;31.35;;;11.38;;
40339;SDS011;26044;50.864;20.658;2023-05-16T06:59:25;22.08;;;11.63;;
40339;SDS011;26044;50.864;20.658;2023-05-16T07:01:53;22.20;;;11.02;;
40339;SDS011;26044;50.864;20.658;2023-05-16T07:04:20;29.25;;;11.88;;
40339;SDS011;26044;50.864;20.658;2023-05-16T07:06:47;29.08;;;14.02;;
40339;SDS011;26044;50.864;20.658;2023-05-16T07:09:14;24.92;;;13.30;;
40339;SDS011;26044;50.864;20.658;2023-05-16T07:11:40;26.52;;;12.30;;
40339;SDS011;26044;50.864;20.658;2023-05-16T07:14:07;19.60;;;9.40;;
40339;SDS011;26044;50.864;20.658;2023-05-16T07:16:35;21.63;;;8.98;;
40339;SDS011;26044;50.864;20.658;2023-05-16T07:19:01;21.67;;;9.23;;
40339;SDS011;26044;50.864;20.658;2023-05-16T07:21:28;17.77;;;8.40;;
40339;SDS011;26044;50.864;20.658;2023-05-16T07:23:56;20.70;;;9.15;;
40339;SDS011;26044;50.864;20.658;2023-05-16T07:26:22;22.85;;;9.70;;
40339;SDS011;26044;50.864;20.658;2023-05-16T07:28:49;22.08;;;8.60;;
40339;SDS011;26044;50.864;20.658;2023-05-16T07:31:16;20.85;;;9.00;;
40339;SDS011;26044;50.864;20.658;2023-05-16T07:33:43;22.40;;;8.57;;
40339;SDS011;26044;50.864;20.658;2023-05-16T07:36:14;20.95;;;8.50;;
40339;SDS011;26044;50.864;20.658;2023-05-16T07:38:43;20.05;;;7.70;;
40339;SDS011;26044;50.864;20.658;2023-05-16T07:41:10;20.25;;;8.38;;
40339;SDS011;26044;50.864;20.658;2023-05-16T07:43:37;19.40;;;8.82;;
40339;SDS011;26044;50.864;20.658;2023-05-16T07:46:04;17.67;;;8.07;;
40339;SDS011;26044;50.864;20.658;2023-05-16T07:48:31;19.15;;;8.10;;
40339;SDS011;26044;50.864;20.658;2023-05-16T07:50:58;19.33;;;9.20;;
40339;SDS011;26044;50.864;20.658;2023-05-16T07:53:24;18.10;;;7.28;;
40339;SDS011;26044;50.864;20.658;2023-05-16T07:55:51;17.00;;;7.03;;
40339;SDS011;26044;50.864;20.658;2023-05-16T07:58:18;19.77;;;7.82;;
40339;SDS011;26044;50.864;20.658;2023-05-16T08:00:45;20.25;;;8.05;;
40339;SDS011;26044;50.864;20.658;2023-05-16T08:03:12;17.02;;;7.40;;
40339;SDS011;26044;50.864;20.658;2023-05-16T08:05:39;17.92;;;7.82;;
40339;SDS011;26044;50.864;20.658;2023-05-16T08:08:06;22.05;;;7.38;;
40339;SDS011;26044;50.864;20.658;2023-05-16T08:10:32;17.13;;;7.70;;
40339;SDS011;26044;50.864;20.658;2023-05-16T08:12:59;22.42;;;8.30;;
40339;SDS011;26044;50.864;20.658;2023-05-16T08:15:26;17.45;;;7.97;;
40339;SDS011;26044;50.864;20.658;2023-05-16T08:17:55;18.35;;;7.95;;
40339;SDS011;26044;50.864;20.658;2023-05-16T08:20:24;18.30;;;8.18;;
40339;SDS011;26044;50.864;20.658;2023-05-16T08:22:51;16.63;;;8.40;;
40339;SDS011;26044;50.864;20.658;2023-05-16T08:25:19;19.63;;;8.77;;
40339;SDS011;26044;50.864;20.658;2023-05-16T08:27:47;21.13;;;9.13;;
40339;SDS011;26044;50.864;20.658;2023-05-16T08:30:15;18.00;;;8.23;;
40339;SDS011;26044;50.864;20.658;2023-05-16T08:32:41;22.77;;;8.98;;
40339;SDS011;26044;50.864;20.658;2023-05-16T08:35:09;20.05;;;8.25;;
40339;SDS011;26044;50.864;20.658;2023-05-16T08:37:40;21.67;;;7.88;;
40339;SDS011;26044;50.864;20.658;2023-05-16T08:40:08;19.85;;;8.38;;
40339;SDS011;26044;50.864;20.658;2023-05-16T08:42:36;21.10;;;8.65;;
40339;SDS011;26044;50.864;20.658;2023-05-16T08:45:03;16.88;;;8.25;;
40339;SDS011;26044;50.864;20.658;2023-05-16T08:47:31;21.00;;;9.00;;
40339;SDS011;26044;50.864;20.658;2023-05-16T08:49:59;19.52;;;7.93;;
40339;SDS011;26044;50.864;20.658;2023-05-16T08:52:30;18.08;;;7.90;;
40339;SDS011;26044;50.864;20.658;2023-05-16T08:55:00;15.30;;;7.10;;
40339;SDS011;26044;50.864;20.658;2023-05-16T08:57:37;16.73;;;7.05;;
40339;SDS011;26044;50.864;20.658;2023-05-16T09:00:06;18.50;;;8.13;;
40339;SDS011;26044;50.864;20.658;2023-05-16T09:02:40;21.23;;;8.38;;
40339;SDS011;26044;50.864;20.658;2023-05-16T09:05:15;19.15;;;7.57;;
40339;SDS011;26044;50.864;20.658;2023-05-16T09:07:43;16.38;;;6.70;;
40339;SDS011;26044;50.864;20.658;2023-05-16T09:10:12;14.15;;;6.70;;
40339;SDS011;26044;50.864;20.658;2023-05-16T09:12:39;12.75;;;5.63;;
40339;SDS011;26044;50.864;20.658;2023-05-16T09:15:07;16.67;;;6.57;;
40339;SDS011;26044;50.864;20.658;2023-05-16T09:17:40;15.38;;;6.18;;
40339;SDS011;26044;50.864;20.658;2023-05-16T09:20:13;16.40;;;7.07;;
40339;SDS011;26044;50.864;20.658;2023-05-16T09:25:23;15.32;;;5.97;;
40339;SDS011;26044;50.864;20.658;2023-05-16T09:27:57;15.30;;;6.45;;
40339;SDS011;26044;50.864;20.658;2023-05-16T09:30:28;11.90;;;6.18;;
40339;SDS011;26044;50.864;20.658;2023-05-16T09:32:57;12.18;;;5.68;;
40339;SDS011;26044;50.864;20.658;2023-05-16T09:35:24;14.60;;;6.47;;
40339;SDS011;26044;50.864;20.658;2023-05-16T09:37:55;14.00;;;5.90;;
40339;SDS011;26044;50.864;20.658;2023-05-16T09:40:22;13.70;;;5.68;;
40339;SDS011;26044;50.864;20.658;2023-05-16T09:45:32;16.52;;;6.00;;
40339;SDS011;26044;50.864;20.658;2023-05-16T09:48:02;16.83;;;5.85;;
40339;SDS011;26044;50.864;20.658;2023-05-16T09:50:34;15.25;;;6.03;;
40339;SDS011;26044;50.864;20.658;2023-05-16T09:53:02;12.80;;;5.38;;
40339;SDS011;26044;50.864;20.658;2023-05-16T09:55:30;16.15;;;6.05;;
40339;SDS011;26044;50.864;20.658;2023-05-16T09:57:57;15.15;;;5.57;;
40339;SDS011;26044;50.864;20.658;2023-05-16T10:00:30;12.02;;;5.10;;
40339;SDS011;26044;50.864;20.658;2023-05-16T10:02:59;16.23;;;6.35;;
40339;SDS011;26044;50.864;20.658;2023-05-16T10:05:30;15.10;;;6.05;;
40339;SDS011;26044;50.864;20.658;2023-05-16T10:07:57;10.60;;;4.88;;
40339;SDS011;26044;50.864;20.658;2023-05-16T10:10:27;14.27;;;5.07;;
40339;SDS011;26044;50.864;20.658;2023-05-16T10:12:55;11.27;;;4.88;;
40339;SDS011;26044;50.864;20.658;2023-05-16T10:15:26;11.73;;;5.30;;
40339;SDS011;26044;50.864;20.658;2023-05-16T10:17:55;11.48;;;4.63;;
40339;SDS011;26044;50.864;20.658;2023-05-16T10:22:52;11.52;;;4.80;;
40339;SDS011;26044;50.864;20.658;2023-05-16T10:25:28;12.70;;;5.30;;
40339;SDS011;26044;50.864;20.658;2023-05-16T10:27:59;17.17;;;5.50;;
40339;SDS011;26044;50.864;20.658;2023-05-16T10:30:26;14.15;;;5.35;;
40339;SDS011;26044;50.864;20.658;2023-05-16T10:32:54;12.32;;;5.10;;
40339;SDS011;26044;50.864;20.658;2023-05-16T10:35:22;14.38;;;5.70;;
40339;SDS011;26044;50.864;20.658;2023-05-16T10:37:50;20.40;;;6.00;;
40339;SDS011;26044;50.864;20.658;2023-05-16T10:40:17;11.32;;;5.03;;
40339;SDS011;26044;50.864;20.658;2023-05-16T10:43:21;10.50;;;4.85;;
40339;SDS011;26044;50.864;20.658;2023-05-16T10:45:52;10.02;;;4.40;;
40339;SDS011;26044;50.864;20.658;2023-05-16T10:48:28;9.68;;;4.75;;
40339;SDS011;26044;50.864;20.658;2023-05-16T10:50:56;17.75;;;5.25;;
40339;SDS011;26044;50.864;20.658;2023-05-16T11:01:16;14.95;;;4.82;;
40339;SDS011;26044;50.864;20.658;2023-05-16T11:06:26;9.93;;;4.35;;
40339;SDS011;26044;50.864;20.658;2023-05-16T11:09:40;11.50;;;4.80;;
40339;SDS011;26044;50.864;20.658;2023-05-16T11:16:47;15.10;;;5.00;;
40339;SDS011;26044;50.864;20.658;2023-05-16T11:19:27;10.82;;;5.45;;
40339;SDS011;26044;50.864;20.658;2023-05-16T11:22:06;9.75;;;5.25;;
40339;SDS011;26044;50.864;20.658;2023-05-16T11:25:06;9.65;;;4.97;;
40339;SDS011;26044;50.864;20.658;2023-05-16T11:27:35;7.75;;;4.15;;
40339;SDS011;26044;50.864;20.658;2023-05-16T11:30:12;7.93;;;3.75;;
40339;SDS011;26044;50.864;20.658;2023-05-16T11:32:40;10.48;;;3.60;;
40339;SDS011;26044;50.864;20.658;2023-05-16T11:35:08;9.20;;;4.05;;
40339;SDS011;26044;50.864;20.658;2023-05-16T11:37:40;10.55;;;4.30;;
40339;SDS011;26044;50.864;20.658;2023-05-16T11:40:08;10.20;;;4.30;;
40339;SDS011;26044;50.864;20.658;2023-05-16T11:42:37;10.30;;;4.03;;
40339;SDS011;26044;50.864;20.658;2023-05-16T11:45:13;9.63;;;4.15;;
40339;SDS011;26044;50.864;20.658;2023-05-16T11:47:45;12.27;;;4.53;;
40339;SDS011;26044;50.864;20.658;2023-05-16T11:50:14;10.40;;;3.80;;
40339;SDS011;26044;50.864;20.658;2023-05-16T11:52:44;9.17;;;4.17;;
40339;SDS011;26044;50.864;20.658;2023-05-16T11:55:12;9.32;;;3.80;;
40339;SDS011;26044;50.864;20.658;2023-05-16T11:58:01;8.52;;;3.63;;
40339;SDS011;26044;50.864;20.658;2023-05-16T12:00:28;9.80;;;3.38;;
40339;SDS011;26044;50.864;20.658;2023-05-16T12:02:59;8.77;;;4.28;;
40339;SDS011;26044;50.864;20.658;2023-05-16T12:05:29;8.02;;;3.75;;
40339;SDS011;26044;50.864;20.658;2023-05-16T12:07:58;10.13;;;3.92;;
40339;SDS011;26044;50.864;20.658;2023-05-16T12:10:25;8.18;;;3.50;;
40339;SDS011;26044;50.864;20.658;2023-05-16T12:12:52;7.07;;;3.92;;
40339;SDS011;26044;50.864;20.658;2023-05-16T12:15:20;9.40;;;3.97;;
40339;SDS011;26044;50.864;20.658;2023-05-16T12:17:47;6.57;;;3.33;;
40339;SDS011;26044;50.864;20.658;2023-05-16T12:20:14;8.55;;;3.80;;
40339;SDS011;26044;50.864;20.658;2023-05-16T12:22:43;9.05;;;3.35;;
40339;SDS011;26044;50.864;20.658;2023-05-16T12:25:30;9.30;;;3.30;;
40339;SDS011;26044;50.864;20.658;2023-05-16T12:27:58;8.77;;;3.08;;
40339;SDS011;26044;50.864;20.658;2023-05-16T12:30:27;5.30;;;2.72;;
40339;SDS011;26044;50.864;20.658;2023-05-16T12:33:00;7.97;;;2.90;;
40339;SDS011;26044;50.864;20.658;2023-05-16T12:35:37;7.90;;;3.20;;
40339;SDS011;26044;50.864;20.658;2023-05-16T12:38:05;7.43;;;3.25;;
40339;SDS011;26044;50.864;20.658;2023-05-16T12:40:37;7.60;;;2.80;;
40339;SDS011;26044;50.864;20.658;2023-05-16T12:43:12;7.30;;;3.50;;
40339;SDS011;26044;50.864;20.658;2023-05-16T12:45:40;5.80;;;3.00;;
40339;SDS011;26044;50.864;20.658;2023-05-16T12:48:11;6.97;;;2.67;;
40339;SDS011;26044;50.864;20.658;2023-05-16T12:50:39;5.15;;;2.72;;
40339;SDS011;26044;50.864;20.658;2023-05-16T12:53:11;9.95;;;3.17;;
40339;SDS011;26044;50.864;20.658;2023-05-16T12:55:39;7.78;;;2.90;;
40339;SDS011;26044;50.864;20.658;2023-05-16T12:58:06;7.25;;;2.60;;
40339;SDS011;26044;50.864;20.658;2023-05-16T13:00:33;6.53;;;2.90;;
40339;SDS011;26044;50.864;20.658;2023-05-16T13:03:02;5.38;;;2.80;;
40339;SDS011;26044;50.864;20.658;2023-05-16T13:05:30;10.85;;;3.28;;
40339;SDS011;26044;50.864;20.658;2023-05-16T13:07:57;11.90;;;2.80;;
40339;SDS011;26044;50.864;20.658;2023-05-16T13:10:23;6.97;;;2.97;;
40339;SDS011;26044;50.864;20.658;2023-05-16T13:12:52;5.45;;;2.90;;
40339;SDS011;26044;50.864;20.658;2023-05-16T13:15:19;8.75;;;3.05;;
40339;SDS011;26044;50.864;20.658;2023-05-16T13:17:46;9.13;;;2.85;;
40339;SDS011;26044;50.864;20.658;2023-05-16T13:20:13;6.13;;;2.97;;
40339;SDS011;26044;50.864;20.658;2023-05-16T13:22:41;6.10;;;3.00;;
40339;SDS011;26044;50.864;20.658;2023-05-16T13:25:09;8.05;;;3.05;;
40339;SDS011;26044;50.864;20.658;2023-05-16T13:27:36;5.65;;;3.10;;
40339;SDS011;26044;50.864;20.658;2023-05-16T13:30:03;8.18;;;2.75;;
40339;SDS011;26044;50.864;20.658;2023-05-16T13:32:30;7.82;;;3.00;;
40339;SDS011;26044;50.864;20.658;2023-05-16T13:34:57;9.55;;;3.38;;
40339;SDS011;26044;50.864;20.658;2023-05-16T13:37:24;9.48;;;4.30;;
40339;SDS011;26044;50.864;20.658;2023-05-16T13:39:51;5.15;;;3.03;;
40339;SDS011;26044;50.864;20.658;2023-05-16T13:42:21;6.85;;;3.20;;
40339;SDS011;26044;50.864;20.658;2023-05-16T13:44:48;7.35;;;3.20;;
40339;SDS011;26044;50.864;20.658;2023-05-16T13:47:15;11.45;;;2.75;;
40339;SDS011;26044;50.864;20.658;2023-05-16T13:49:42;10.30;;;3.55;;
40339;SDS011;26044;50.864;20.658;2023-05-16T13:52:08;11.88;;;3.17;;
40339;SDS011;26044;50.864;20.658;2023-05-16T13:54:35;7.85;;;3.00;;
40339;SDS011;26044;50.864;20.658;2023-05-16T13:57:02;7.28;;;3.17;;
40339;SDS011;26044;50.864;20.658;2023-05-16T13:59:29;6.10;;;2.80;;
40339;SDS011;26044;50.864;20.658;2023-05-16T14:02:16;8.70;;;3.58;;
40339;SDS011;26044;50.864;20.658;2023-05-16T14:04:43;6.85;;;2.85;;
40339;SDS011;26044;50.864;20.658;2023-05-16T14:07:11;6.82;;;2.85;;
40339;SDS011;26044;50.864;20.658;2023-05-16T14:09:38;4.10;;;2.60;;
40339;SDS011;26044;50.864;20.658;2023-05-16T14:12:05;11.77;;;3.65;;
40339;SDS011;26044;50.864;20.658;2023-05-16T14:14:34;10.38;;;3.30;;
40339;SDS011;26044;50.864;20.658;2023-05-16T14:17:01;7.45;;;3.17;;
40339;SDS011;26044;50.864;20.658;2023-05-16T14:19:29;9.05;;;3.80;;
40339;SDS011;26044;50.864;20.658;2023-05-16T14:21:56;18.35;;;5.63;;
40339;SDS011;26044;50.864;20.658;2023-05-16T14:24:23;13.85;;;4.10;;
40339;SDS011;26044;50.864;20.658;2023-05-16T14:26:50;7.57;;;3.03;;
40339;SDS011;26044;50.864;20.658;2023-05-16T14:29:23;6.25;;;2.97;;
40339;SDS011;26044;50.864;20.658;2023-05-16T14:31:52;7.75;;;3.78;;
40339;SDS011;26044;50.864;20.658;2023-05-16T14:34:19;7.97;;;2.92;;
40339;SDS011;26044;50.864;20.658;2023-05-16T14:36:48;9.90;;;3.55;;
40339;SDS011;26044;50.864;20.658;2023-05-16T14:39:14;14.15;;;3.53;;
40339;SDS011;26044;50.864;20.658;2023-05-16T14:41:41;7.50;;;3.03;;
40339;SDS011;26044;50.864;20.658;2023-05-16T14:44:08;8.75;;;3.53;;
40339;SDS011;26044;50.864;20.658;2023-05-16T14:46:35;16.17;;;4.25;;
40339;SDS011;26044;50.864;20.658;2023-05-16T14:49:02;9.65;;;3.20;;
40339;SDS011;26044;50.864;20.658;2023-05-16T14:51:29;9.02;;;3.28;;
40339;SDS011;26044;50.864;20.658;2023-05-16T14:53:57;16.98;;;5.07;;
40339;SDS011;26044;50.864;20.658;2023-05-16T14:56:24;12.40;;;4.80;;
40339;SDS011;26044;50.864;20.658;2023-05-16T14:58:53;12.85;;;4.30;;
40339;SDS011;26044;50.864;20.658;2023-05-16T15:01:19;14.60;;;4.10;;
40339;SDS011;26044;50.864;20.658;2023-05-16T15:03:47;10.85;;;3.55;;